Date,TemperatureHighF,TemperatureAvgF,TemperatureLowF,DewpointHighF,DewpointAvgF,DewpointLowF,HumidityHigh,HumidityAvg,HumidityLow,PressureMaxIn,PressureMinIn,WindSpeedMaxMPH,WindSpeedAvgMPH,GustSpeedMaxMPH,PrecipitationSumIn
2014-1-1,43.5,40.8,36.1,37.5,34.4,28.6,81,78,74,30.32,30.17,3,0,5,0.04
2014-1-2,48.3,44.7,41.9,41.6,37.3,31.8,84,76,54,30.17,29.81,7,0,12,0.59
2014-1-3,46.0,40.8,36.6,40.2,30.9,26.1,80,68,48,30.29,29.93,5,0,8,0.00
2014-1-4,41.7,36.0,31.6,29.3,25.2,20.5,76,65,46,30.39,30.29,4,0,6,0.00
2014-1-5,41.9,33.3,28.7,35.2,23.9,18.6,77,68,56,30.42,30.24,3,0,5,0.00
2014-1-6,39.2,34.6,30.0,30.9,26.4,21.9,80,72,62,30.24,30.05,3,0,5,0.00
2014-1-7,46.4,43.1,38.8,41.8,37.4,29.5,84,80,68,30.05,29.90,3,0,8,0.47
2014-1-8,48.5,46.8,44.7,43.6,40.4,31.9,83,79,58,29.93,29.60,8,2,16,0.39
2014-1-9,47.4,44.5,41.5,40.9,33.2,28.2,81,64,52,29.93,29.63,9,2,17,0.08
2014-1-10,50.1,47.7,46.9,43.2,32.8,30.1,78,56,50,30.02,29.48,11,4,21,0.12
2014-1-11,55.5,46.7,42.2,44.6,35.9,29.0,79,66,46,29.72,29.27,12,4,23,0.94
2014-1-12,50.9,46.1,41.3,41.8,35.4,27.0,78,67,52,30.23,29.69,8,3,15,0.16
2014-1-13,51.9,50.4,49.2,39.1,36.9,34.1,63,60,55,30.55,30.23,10,3,17,0.00
2014-1-14,51.8,49.7,47.8,40.9,38.6,35.9,75,66,55,30.58,30.50,4,0,8,0.00
2014-1-15,49.2,45.1,40.6,40.4,34.0,27.9,78,65,50,30.53,30.44,4,0,6,0.00
2014-1-16,42.8,40.6,37.7,36.2,33.9,31.2,80,77,70,30.44,30.26,4,0,6,0.00
2014-1-17,40.4,37.8,36.1,33.8,31.6,30.2,80,78,74,30.29,30.11,4,0,6,0.00
2014-1-18,45.3,38.9,34.3,34.5,30.1,27.5,79,71,53,30.20,30.08,5,0,8,0.00
2014-1-19,41.7,38.6,35.2,34.8,31.7,28.7,82,76,70,30.23,30.08,5,0,7,0.00
2014-1-20,45.5,39.0,34.3,30.7,27.7,23.2,76,64,44,30.26,30.20,4,0,6,0.00
2014-1-21,45.5,38.6,33.2,37.6,30.4,23.1,83,73,54,30.26,30.14,5,0,8,0.00
2014-1-22,47.1,44.3,42.0,41.0,36.5,31.4,82,74,61,30.38,30.23,5,0,8,0.04
2014-1-23,46.4,41.5,35.6,34.2,30.2,25.5,76,65,48,30.41,30.32,6,1,8,0.00
2014-1-24,51.4,38.7,32.7,33.8,27.6,24.0,77,65,39,30.35,30.20,4,0,5,0.00
2014-1-25,48.7,38.3,32.7,33.7,26.7,22.5,78,64,40,30.32,30.20,3,0,4,0.00
2014-1-26,46.7,36.9,30.9,29.9,23.6,20.0,74,59,39,30.21,30.02,4,0,5,0.00
2014-1-27,41.1,36.4,32.1,34.8,29.3,21.6,80,75,61,30.15,30.03,3,0,5,0.00
2014-1-28,48.7,44.5,40.1,38.0,34.5,29.6,79,69,48,30.17,29.81,3,0,4,0.31
2014-1-29,50.1,46.3,44.0,45.5,40.1,37.3,84,79,75,29.81,29.54,6,0,11,0.87
2014-1-30,46.5,44.1,42.8,38.5,29.9,25.6,78,58,44,29.84,29.72,10,3,13,0.00
2014-1-31,43.5,41.7,38.6,35.2,31.5,25.6,77,67,50,30.08,29.84,4,0,6,0.12